KHUF/HUF METAR and TAF weather

Enter ICAO airport designator
Station Type Date Time Source
KHUF METAR 2021/04/14 19:53 UTC NOAA

KHUF 141953Z 31013G21KT 10SM CLR 16/M01 A3005 RMK AO2 SLP175 T01561006


Station Type Date Time Source
KHUF Decoded METAR 2021/04/14 19:53 UTC NOAA

TERRE HAUTE INTERNATIONAL -HULMAN FLD, IN, United States (KHUF) 39-27N 087-19W 179M
Apr 14, 2021 - 03:53 PM EDT / 2021.04.14 1953 UTC
Wind: from the NW (310 degrees) at 15 MPH (13 KT) gusting to 24 MPH (21 KT):0
Visibility: 10 mile(s):0
Sky conditions: clear
Temperature: 60.1 F (15.6 C)
Dew Point: 30.9 F (-0.6 C)
Relative Humidity: 33%
Pressure (altimeter): 30.05 in. Hg (1017 hPa)
ob: KHUF 141953Z 31013G21KT 10SM CLR 16/M01 A3005 RMK AO2 SLP175 T01561006
cycle: 20

Station Type Date Time Source
KHUF TAF 2021/04/14 18:24 UTC NOAA

KHUF 141721Z 1418/1518 28010KT P6SM FEW250
FM150100 31009KT P6SM SCT120

Example: see airport list